sensor_id;sensor_type;location;lat;lon;timestamp;P1;durP1;ratioP1;P2;durP2;ratioP2
29940;SDS011;16801;53.562;10.038;2023-01-29T00:01:52;8.53;;;6.37;;
29940;SDS011;16801;53.562;10.038;2023-01-29T00:05:13;9.80;;;6.87;;
29940;SDS011;16801;53.562;10.038;2023-01-29T00:08:35;11.90;;;8.17;;
29940;SDS011;16801;53.562;10.038;2023-01-29T00:11:57;9.03;;;5.67;;
29940;SDS011;16801;53.562;10.038;2023-01-29T00:15:18;8.53;;;7.03;;
29940;SDS011;16801;53.562;10.038;2023-01-29T00:18:40;11.10;;;7.37;;
29940;SDS011;16801;53.562;10.038;2023-01-29T00:22:01;9.43;;;7.27;;
29940;SDS011;16801;53.562;10.038;2023-01-29T00:25:22;8.77;;;5.73;;
29940;SDS011;16801;53.562;10.038;2023-01-29T00:28:44;9.17;;;6.20;;
29940;SDS011;16801;53.562;10.038;2023-01-29T00:32:05;7.43;;;5.80;;
29940;SDS011;16801;53.562;10.038;2023-01-29T00:35:28;5.87;;;4.73;;
29940;SDS011;16801;53.562;10.038;2023-01-29T00:38:52;5.83;;;5.33;;
29940;SDS011;16801;53.562;10.038;2023-01-29T00:42:17;11.20;;;7.17;;
29940;SDS011;16801;53.562;10.038;2023-01-29T00:45:59;6.47;;;4.90;;
29940;SDS011;16801;53.562;10.038;2023-01-29T00:49:25;11.97;;;7.07;;
29940;SDS011;16801;53.562;10.038;2023-01-29T00:52:46;11.07;;;5.10;;
29940;SDS011;16801;53.562;10.038;2023-01-29T00:56:08;7.60;;;6.10;;
29940;SDS011;16801;53.562;10.038;2023-01-29T00:59:28;9.23;;;6.03;;
29940;SDS011;16801;53.562;10.038;2023-01-29T01:02:51;7.53;;;6.73;;
29940;SDS011;16801;53.562;10.038;2023-01-29T01:06:27;8.47;;;5.43;;
29940;SDS011;16801;53.562;10.038;2023-01-29T01:09:49;8.43;;;6.30;;
29940;SDS011;16801;53.562;10.038;2023-01-29T01:13:27;6.43;;;5.53;;
29940;SDS011;16801;53.562;10.038;2023-01-29T01:16:50;9.47;;;7.77;;
29940;SDS011;16801;53.562;10.038;2023-01-29T01:20:12;10.37;;;5.43;;
29940;SDS011;16801;53.562;10.038;2023-01-29T01:23:33;10.93;;;7.33;;
29940;SDS011;16801;53.562;10.038;2023-01-29T01:26:54;7.87;;;5.33;;
29940;SDS011;16801;53.562;10.038;2023-01-29T01:30:15;5.90;;;5.20;;
29940;SDS011;16801;53.562;10.038;2023-01-29T01:33:36;5.27;;;4.53;;
29940;SDS011;16801;53.562;10.038;2023-01-29T01:36:59;6.23;;;4.77;;
29940;SDS011;16801;53.562;10.038;2023-01-29T01:40:20;6.70;;;5.37;;
29940;SDS011;16801;53.562;10.038;2023-01-29T01:43:49;5.67;;;5.07;;
29940;SDS011;16801;53.562;10.038;2023-01-29T01:47:12;9.43;;;5.67;;
29940;SDS011;16801;53.562;10.038;2023-01-29T01:50:36;5.30;;;4.53;;
29940;SDS011;16801;53.562;10.038;2023-01-29T01:54:05;6.43;;;5.07;;
29940;SDS011;16801;53.562;10.038;2023-01-29T01:57:28;10.20;;;4.73;;
29940;SDS011;16801;53.562;10.038;2023-01-29T02:00:51;7.07;;;6.37;;
29940;SDS011;16801;53.562;10.038;2023-01-29T02:04:13;7.40;;;5.83;;
29940;SDS011;16801;53.562;10.038;2023-01-29T02:07:53;5.10;;;3.80;;
29940;SDS011;16801;53.562;10.038;2023-01-29T02:11:32;5.00;;;4.57;;
29940;SDS011;16801;53.562;10.038;2023-01-29T02:14:53;7.70;;;5.47;;
29940;SDS011;16801;53.562;10.038;2023-01-29T02:18:15;6.00;;;4.90;;
29940;SDS011;16801;53.562;10.038;2023-01-29T02:25:32;7.20;;;4.80;;
29940;SDS011;16801;53.562;10.038;2023-01-29T02:29:09;5.43;;;4.63;;
29940;SDS011;16801;53.562;10.038;2023-01-29T02:32:46;14.63;;;5.20;;
29940;SDS011;16801;53.562;10.038;2023-01-29T02:36:19;6.53;;;5.93;;
29940;SDS011;16801;53.562;10.038;2023-01-29T02:39:47;6.43;;;4.80;;
29940;SDS011;16801;53.562;10.038;2023-01-29T02:43:20;8.67;;;5.23;;
29940;SDS011;16801;53.562;10.038;2023-01-29T02:46:53;7.83;;;5.33;;
29940;SDS011;16801;53.562;10.038;2023-01-29T02:50:24;4.80;;;3.73;;
29940;SDS011;16801;53.562;10.038;2023-01-29T02:53:50;7.83;;;5.10;;
29940;SDS011;16801;53.562;10.038;2023-01-29T02:57:19;5.17;;;4.77;;
29940;SDS011;16801;53.562;10.038;2023-01-29T03:00:43;5.57;;;4.37;;
29940;SDS011;16801;53.562;10.038;2023-01-29T03:04:08;6.67;;;5.97;;
29940;SDS011;16801;53.562;10.038;2023-01-29T03:07:33;7.70;;;5.00;;
29940;SDS011;16801;53.562;10.038;2023-01-29T03:11:08;4.50;;;4.03;;
29940;SDS011;16801;53.562;10.038;2023-01-29T03:14:33;6.80;;;6.10;;
29940;SDS011;16801;53.562;10.038;2023-01-29T03:18:21;5.17;;;4.50;;
29940;SDS011;16801;53.562;10.038;2023-01-29T03:21:49;6.07;;;5.13;;
29940;SDS011;16801;53.562;10.038;2023-01-29T03:25:18;5.23;;;4.83;;
29940;SDS011;16801;53.562;10.038;2023-01-29T03:28:59;6.47;;;4.57;;
29940;SDS011;16801;53.562;10.038;2023-01-29T03:32:40;8.13;;;5.93;;
29940;SDS011;16801;53.562;10.038;2023-01-29T03:36:05;6.83;;;5.73;;
29940;SDS011;16801;53.562;10.038;2023-01-29T03:39:31;8.53;;;4.93;;
29940;SDS011;16801;53.562;10.038;2023-01-29T03:42:56;5.43;;;4.87;;
29940;SDS011;16801;53.562;10.038;2023-01-29T03:46:26;5.67;;;4.63;;
29940;SDS011;16801;53.562;10.038;2023-01-29T03:49:56;6.33;;;4.87;;
29940;SDS011;16801;53.562;10.038;2023-01-29T03:53:20;8.23;;;5.03;;
29940;SDS011;16801;53.562;10.038;2023-01-29T03:56:51;7.10;;;5.33;;
29940;SDS011;16801;53.562;10.038;2023-01-29T04:00:18;5.27;;;4.33;;
29940;SDS011;16801;53.562;10.038;2023-01-29T04:03:52;7.03;;;4.60;;
29940;SDS011;16801;53.562;10.038;2023-01-29T04:07:19;6.73;;;4.87;;
29940;SDS011;16801;53.562;10.038;2023-01-29T04:10:47;4.40;;;3.87;;
29940;SDS011;16801;53.562;10.038;2023-01-29T04:14:13;6.10;;;5.50;;
29940;SDS011;16801;53.562;10.038;2023-01-29T04:17:37;9.33;;;6.83;;
29940;SDS011;16801;53.562;10.038;2023-01-29T04:21:12;9.93;;;6.53;;
29940;SDS011;16801;53.562;10.038;2023-01-29T04:24:34;5.13;;;4.47;;
29940;SDS011;16801;53.562;10.038;2023-01-29T04:27:56;6.53;;;4.43;;
29940;SDS011;16801;53.562;10.038;2023-01-29T04:31:27;7.27;;;6.07;;
29940;SDS011;16801;53.562;10.038;2023-01-29T04:34:58;7.33;;;4.63;;
29940;SDS011;16801;53.562;10.038;2023-01-29T04:38:23;5.63;;;4.47;;
29940;SDS011;16801;53.562;10.038;2023-01-29T04:41:54;5.27;;;4.60;;
29940;SDS011;16801;53.562;10.038;2023-01-29T04:45:25;5.43;;;4.37;;
29940;SDS011;16801;53.562;10.038;2023-01-29T04:48:59;9.23;;;5.97;;
29940;SDS011;16801;53.562;10.038;2023-01-29T04:52:33;7.47;;;4.73;;
29940;SDS011;16801;53.562;10.038;2023-01-29T04:56:05;6.20;;;4.40;;
29940;SDS011;16801;53.562;10.038;2023-01-29T04:59:31;9.03;;;6.17;;
29940;SDS011;16801;53.562;10.038;2023-01-29T05:02:56;5.33;;;4.83;;
29940;SDS011;16801;53.562;10.038;2023-01-29T05:06:22;5.57;;;4.30;;
29940;SDS011;16801;53.562;10.038;2023-01-29T05:09:44;7.83;;;5.47;;
29940;SDS011;16801;53.562;10.038;2023-01-29T05:13:07;9.17;;;5.43;;
29940;SDS011;16801;53.562;10.038;2023-01-29T05:16:33;8.40;;;5.23;;
29940;SDS011;16801;53.562;10.038;2023-01-29T05:20:00;8.07;;;5.53;;
29940;SDS011;16801;53.562;10.038;2023-01-29T05:23:22;8.70;;;5.23;;
29940;SDS011;16801;53.562;10.038;2023-01-29T05:26:43;9.77;;;5.57;;
29940;SDS011;16801;53.562;10.038;2023-01-29T05:30:24;8.70;;;5.63;;
29940;SDS011;16801;53.562;10.038;2023-01-29T05:33:45;7.47;;;5.20;;
29940;SDS011;16801;53.562;10.038;2023-01-29T05:37:05;6.83;;;5.77;;
29940;SDS011;16801;53.562;10.038;2023-01-29T05:40:28;6.57;;;5.97;;
29940;SDS011;16801;53.562;10.038;2023-01-29T05:43:49;8.57;;;5.90;;
29940;SDS011;16801;53.562;10.038;2023-01-29T05:47:10;7.47;;;5.10;;
29940;SDS011;16801;53.562;10.038;2023-01-29T05:50:30;6.67;;;5.57;;
29940;SDS011;16801;53.562;10.038;2023-01-29T05:53:51;9.20;;;5.67;;
29940;SDS011;16801;53.562;10.038;2023-01-29T05:57:17;7.60;;;5.97;;
29940;SDS011;16801;53.562;10.038;2023-01-29T06:00:39;5.43;;;4.83;;
29940;SDS011;16801;53.562;10.038;2023-01-29T06:04:00;8.50;;;5.53;;
29940;SDS011;16801;53.562;10.038;2023-01-29T06:07:21;7.80;;;5.70;;
29940;SDS011;16801;53.562;10.038;2023-01-29T06:10:42;10.10;;;6.67;;
29940;SDS011;16801;53.562;10.038;2023-01-29T06:14:04;8.10;;;6.87;;
29940;SDS011;16801;53.562;10.038;2023-01-29T06:17:25;6.77;;;3.90;;
29940;SDS011;16801;53.562;10.038;2023-01-29T06:20:46;6.27;;;4.93;;
29940;SDS011;16801;53.562;10.038;2023-01-29T06:24:07;6.30;;;4.47;;
29940;SDS011;16801;53.562;10.038;2023-01-29T06:27:28;6.63;;;5.00;;
29940;SDS011;16801;53.562;10.038;2023-01-29T06:30:50;5.80;;;4.97;;
29940;SDS011;16801;53.562;10.038;2023-01-29T06:34:11;7.53;;;5.93;;
29940;SDS011;16801;53.562;10.038;2023-01-29T06:37:32;9.63;;;5.97;;
29940;SDS011;16801;53.562;10.038;2023-01-29T06:40:53;7.50;;;5.83;;
29940;SDS011;16801;53.562;10.038;2023-01-29T06:44:14;10.30;;;5.40;;
29940;SDS011;16801;53.562;10.038;2023-01-29T06:47:37;5.50;;;4.73;;
29940;SDS011;16801;53.562;10.038;2023-01-29T06:51:00;8.37;;;5.63;;
29940;SDS011;16801;53.562;10.038;2023-01-29T06:54:21;7.73;;;5.57;;
29940;SDS011;16801;53.562;10.038;2023-01-29T06:57:42;5.33;;;4.47;;
29940;SDS011;16801;53.562;10.038;2023-01-29T07:01:04;6.63;;;5.73;;
29940;SDS011;16801;53.562;10.038;2023-01-29T07:04:27;8.40;;;5.33;;
29940;SDS011;16801;53.562;10.038;2023-01-29T07:07:48;8.27;;;5.83;;
29940;SDS011;16801;53.562;10.038;2023-01-29T07:11:09;6.50;;;4.53;;
29940;SDS011;16801;53.562;10.038;2023-01-29T07:14:31;14.03;;;5.67;;
29940;SDS011;16801;53.562;10.038;2023-01-29T07:17:55;10.20;;;5.20;;
29940;SDS011;16801;53.562;10.038;2023-01-29T07:21:18;6.50;;;4.70;;
29940;SDS011;16801;53.562;10.038;2023-01-29T07:24:39;7.20;;;4.70;;
29940;SDS011;16801;53.562;10.038;2023-01-29T07:28:00;5.47;;;4.77;;
29940;SDS011;16801;53.562;10.038;2023-01-29T07:31:21;8.87;;;6.67;;
29940;SDS011;16801;53.562;10.038;2023-01-29T07:34:42;6.57;;;5.50;;
29940;SDS011;16801;53.562;10.038;2023-01-29T07:38:04;7.47;;;5.07;;
29940;SDS011;16801;53.562;10.038;2023-01-29T07:41:25;5.73;;;4.63;;
29940;SDS011;16801;53.562;10.038;2023-01-29T07:44:47;9.38;;;6.20;;
29940;SDS011;16801;53.562;10.038;2023-01-29T07:48:09;8.57;;;7.72;;
29940;SDS011;16801;53.562;10.038;2023-01-29T07:51:32;8.57;;;6.30;;
29940;SDS011;16801;53.562;10.038;2023-01-29T07:54:54;9.70;;;7.83;;
29940;SDS011;16801;53.562;10.038;2023-01-29T07:58:15;6.63;;;5.70;;
29940;SDS011;16801;53.562;10.038;2023-01-29T08:01:35;6.83;;;6.17;;
29940;SDS011;16801;53.562;10.038;2023-01-29T08:04:56;6.13;;;5.53;;
29940;SDS011;16801;53.562;10.038;2023-01-29T08:08:18;10.03;;;6.33;;
29940;SDS011;16801;53.562;10.038;2023-01-29T08:11:40;9.97;;;7.10;;
29940;SDS011;16801;53.562;10.038;2023-01-29T08:15:01;9.03;;;6.43;;
29940;SDS011;16801;53.562;10.038;2023-01-29T08:18:22;9.67;;;6.90;;
29940;SDS011;16801;53.562;10.038;2023-01-29T08:21:43;17.10;;;7.77;;
29940;SDS011;16801;53.562;10.038;2023-01-29T08:25:04;9.30;;;5.07;;
29940;SDS011;16801;53.562;10.038;2023-01-29T08:28:27;10.47;;;6.80;;
29940;SDS011;16801;53.562;10.038;2023-01-29T08:31:48;13.27;;;8.27;;
29940;SDS011;16801;53.562;10.038;2023-01-29T08:35:09;13.10;;;8.33;;
29940;SDS011;16801;53.562;10.038;2023-01-29T08:38:30;12.67;;;8.50;;
29940;SDS011;16801;53.562;10.038;2023-01-29T08:41:51;12.30;;;9.77;;
29940;SDS011;16801;53.562;10.038;2023-01-29T08:45:13;14.83;;;9.83;;
29940;SDS011;16801;53.562;10.038;2023-01-29T08:48:34;14.33;;;10.50;;
29940;SDS011;16801;53.562;10.038;2023-01-29T08:51:55;11.13;;;7.87;;
29940;SDS011;16801;53.562;10.038;2023-01-29T08:55:15;15.07;;;10.43;;
29940;SDS011;16801;53.562;10.038;2023-01-29T08:58:36;19.43;;;11.83;;
29940;SDS011;16801;53.562;10.038;2023-01-29T09:01:59;17.83;;;11.60;;
29940;SDS011;16801;53.562;10.038;2023-01-29T09:05:20;15.77;;;11.23;;
29940;SDS011;16801;53.562;10.038;2023-01-29T09:08:41;16.63;;;12.00;;
29940;SDS011;16801;53.562;10.038;2023-01-29T09:12:02;14.73;;;10.27;;
29940;SDS011;16801;53.562;10.038;2023-01-29T09:15:24;24.80;;;10.97;;
29940;SDS011;16801;53.562;10.038;2023-01-29T09:18:46;16.73;;;9.83;;
29940;SDS011;16801;53.562;10.038;2023-01-29T09:22:07;15.93;;;11.73;;
29940;SDS011;16801;53.562;10.038;2023-01-29T09:25:28;15.57;;;11.33;;
29940;SDS011;16801;53.562;10.038;2023-01-29T09:28:49;17.10;;;11.10;;
29940;SDS011;16801;53.562;10.038;2023-01-29T09:32:11;15.50;;;10.13;;
29940;SDS011;16801;53.562;10.038;2023-01-29T09:35:34;16.03;;;12.00;;
29940;SDS011;16801;53.562;10.038;2023-01-29T09:38:56;14.17;;;11.90;;
29940;SDS011;16801;53.562;10.038;2023-01-29T09:42:17;12.03;;;8.77;;
29940;SDS011;16801;53.562;10.038;2023-01-29T09:45:44;13.07;;;10.10;;
29940;SDS011;16801;53.562;10.038;2023-01-29T09:49:14;15.77;;;10.67;;
29940;SDS011;16801;53.562;10.038;2023-01-29T09:52:44;17.03;;;12.17;;
29940;SDS011;16801;53.562;10.038;2023-01-29T09:56:10;16.90;;;12.20;;
29940;SDS011;16801;53.562;10.038;2023-01-29T09:59:33;19.23;;;12.73;;
29940;SDS011;16801;53.562;10.038;2023-01-29T10:03:07;15.37;;;11.60;;
29940;SDS011;16801;53.562;10.038;2023-01-29T10:06:42;14.57;;;9.83;;
29940;SDS011;16801;53.562;10.038;2023-01-29T10:10:25;13.57;;;10.07;;
29940;SDS011;16801;53.562;10.038;2023-01-29T10:13:57;15.50;;;9.37;;
29940;SDS011;16801;53.562;10.038;2023-01-29T10:17:27;11.60;;;9.70;;
29940;SDS011;16801;53.562;10.038;2023-01-29T10:21:01;20.33;;;14.43;;
29940;SDS011;16801;53.562;10.038;2023-01-29T10:24:33;15.87;;;11.87;;
29940;SDS011;16801;53.562;10.038;2023-01-29T10:27:58;15.40;;;12.73;;
29940;SDS011;16801;53.562;10.038;2023-01-29T10:31:22;25.70;;;18.50;;
29940;SDS011;16801;53.562;10.038;2023-01-29T10:34:51;21.13;;;15.57;;
29940;SDS011;16801;53.562;10.038;2023-01-29T10:38:19;22.67;;;14.23;;
29940;SDS011;16801;53.562;10.038;2023-01-29T10:41:53;18.57;;;15.07;;
29940;SDS011;16801;53.562;10.038;2023-01-29T10:45:28;17.87;;;13.80;;
29940;SDS011;16801;53.562;10.038;2023-01-29T10:48:57;23.07;;;15.00;;
29940;SDS011;16801;53.562;10.038;2023-01-29T10:52:28;14.43;;;11.27;;
29940;SDS011;16801;53.562;10.038;2023-01-29T10:56:03;18.63;;;13.07;;
29940;SDS011;16801;53.562;10.038;2023-01-29T10:59:43;15.43;;;12.83;;
29940;SDS011;16801;53.562;10.038;2023-01-29T11:03:15;12.47;;;11.17;;
29940;SDS011;16801;53.562;10.038;2023-01-29T11:06:37;13.37;;;11.77;;
29940;SDS011;16801;53.562;10.038;2023-01-29T11:09:59;20.70;;;13.20;;
29940;SDS011;16801;53.562;10.038;2023-01-29T11:13:28;15.23;;;10.33;;
29940;SDS011;16801;53.562;10.038;2023-01-29T11:16:51;15.37;;;10.63;;
29940;SDS011;16801;53.562;10.038;2023-01-29T11:20:24;14.20;;;12.40;;
29940;SDS011;16801;53.562;10.038;2023-01-29T11:23:46;15.10;;;11.87;;
29940;SDS011;16801;53.562;10.038;2023-01-29T11:27:12;13.00;;;10.20;;
29940;SDS011;16801;53.562;10.038;2023-01-29T11:30:36;14.03;;;11.83;;
29940;SDS011;16801;53.562;10.038;2023-01-29T11:34:00;18.33;;;12.80;;
29940;SDS011;16801;53.562;10.038;2023-01-29T11:37:31;15.77;;;11.07;;
29940;SDS011;16801;53.562;10.038;2023-01-29T11:41:03;11.43;;;10.20;;
29940;SDS011;16801;53.562;10.038;2023-01-29T11:44:26;14.07;;;9.90;;
29940;SDS011;16801;53.562;10.038;2023-01-29T11:47:49;11.40;;;9.10;;
29940;SDS011;16801;53.562;10.038;2023-01-29T11:51:19;15.10;;;12.07;;
29940;SDS011;16801;53.562;10.038;2023-01-29T11:54:45;12.00;;;10.13;;
29940;SDS011;16801;53.562;10.038;2023-01-29T11:58:11;13.03;;;10.03;;
29940;SDS011;16801;53.562;10.038;2023-01-29T12:01:37;15.13;;;10.53;;
29940;SDS011;16801;53.562;10.038;2023-01-29T12:05:02;13.87;;;10.83;;
29940;SDS011;16801;53.562;10.038;2023-01-29T12:08:26;13.20;;;9.00;;
29940;SDS011;16801;53.562;10.038;2023-01-29T12:11:54;14.47;;;9.63;;
29940;SDS011;16801;53.562;10.038;2023-01-29T12:15:20;8.87;;;7.83;;
29940;SDS011;16801;53.562;10.038;2023-01-29T12:18:43;13.20;;;11.17;;
29940;SDS011;16801;53.562;10.038;2023-01-29T12:22:09;17.40;;;12.33;;
29940;SDS011;16801;53.562;10.038;2023-01-29T12:25:39;16.47;;;10.97;;
29940;SDS011;16801;53.562;10.038;2023-01-29T12:29:18;14.20;;;10.57;;
29940;SDS011;16801;53.562;10.038;2023-01-29T12:32:47;15.63;;;9.87;;
29940;SDS011;16801;53.562;10.038;2023-01-29T12:36:16;12.07;;;9.23;;
29940;SDS011;16801;53.562;10.038;2023-01-29T12:39:41;11.97;;;9.17;;
29940;SDS011;16801;53.562;10.038;2023-01-29T12:43:03;10.27;;;8.97;;
29940;SDS011;16801;53.562;10.038;2023-01-29T12:46:36;14.90;;;10.00;;
29940;SDS011;16801;53.562;10.038;2023-01-29T12:50:00;17.40;;;9.90;;
29940;SDS011;16801;53.562;10.038;2023-01-29T12:53:25;13.30;;;9.60;;
29940;SDS011;16801;53.562;10.038;2023-01-29T12:56:50;12.10;;;8.63;;
29940;SDS011;16801;53.562;10.038;2023-01-29T13:00:17;14.07;;;11.07;;
29940;SDS011;16801;53.562;10.038;2023-01-29T13:03:45;11.00;;;8.63;;
29940;SDS011;16801;53.562;10.038;2023-01-29T13:07:12;13.50;;;11.27;;
29940;SDS011;16801;53.562;10.038;2023-01-29T13:10:40;14.97;;;9.53;;
29940;SDS011;16801;53.562;10.038;2023-01-29T13:14:05;11.50;;;8.83;;
29940;SDS011;16801;53.562;10.038;2023-01-29T13:17:33;9.20;;;7.47;;
29940;SDS011;16801;53.562;10.038;2023-01-29T13:20:58;10.87;;;8.57;;
29940;SDS011;16801;53.562;10.038;2023-01-29T13:24:22;11.77;;;8.77;;
29940;SDS011;16801;53.562;10.038;2023-01-29T13:27:45;12.13;;;9.97;;
29940;SDS011;16801;53.562;10.038;2023-01-29T13:31:16;10.80;;;9.40;;
29940;SDS011;16801;53.562;10.038;2023-01-29T13:34:43;11.37;;;8.40;;
29940;SDS011;16801;53.562;10.038;2023-01-29T13:38:14;16.97;;;8.77;;
29940;SDS011;16801;53.562;10.038;2023-01-29T13:41:42;12.73;;;8.30;;
29940;SDS011;16801;53.562;10.038;2023-01-29T13:45:04;11.17;;;9.30;;
29940;SDS011;16801;53.562;10.038;2023-01-29T13:48:28;9.83;;;7.97;;
29940;SDS011;16801;53.562;10.038;2023-01-29T13:51:55;16.33;;;8.83;;
29940;SDS011;16801;53.562;10.038;2023-01-29T13:55:26;11.50;;;9.47;;
29940;SDS011;16801;53.562;10.038;2023-01-29T13:58:51;12.27;;;8.43;;
29940;SDS011;16801;53.562;10.038;2023-01-29T14:02:20;12.90;;;9.67;;
29940;SDS011;16801;53.562;10.038;2023-01-29T14:05:55;14.40;;;10.57;;
29940;SDS011;16801;53.562;10.038;2023-01-29T14:09:30;13.37;;;9.60;;
29940;SDS011;16801;53.562;10.038;2023-01-29T14:13:26;7.97;;;7.13;;
29940;SDS011;16801;53.562;10.038;2023-01-29T14:16:56;13.53;;;9.77;;
29940;SDS011;16801;53.562;10.038;2023-01-29T14:20:22;14.70;;;10.23;;
29940;SDS011;16801;53.562;10.038;2023-01-29T14:23:46;13.93;;;10.43;;
29940;SDS011;16801;53.562;10.038;2023-01-29T14:27:12;13.20;;;9.77;;
29940;SDS011;16801;53.562;10.038;2023-01-29T14:30:43;17.07;;;11.83;;
29940;SDS011;16801;53.562;10.038;2023-01-29T14:34:13;12.30;;;9.80;;
29940;SDS011;16801;53.562;10.038;2023-01-29T14:37:37;10.37;;;8.30;;
29940;SDS011;16801;53.562;10.038;2023-01-29T14:41:01;14.43;;;9.30;;
29940;SDS011;16801;53.562;10.038;2023-01-29T14:48:18;12.40;;;8.43;;
29940;SDS011;16801;53.562;10.038;2023-01-29T14:51:54;13.67;;;10.37;;
29940;SDS011;16801;53.562;10.038;2023-01-29T14:55:29;13.20;;;8.73;;
29940;SDS011;16801;53.562;10.038;2023-01-29T14:59:00;11.10;;;9.83;;
29940;SDS011;16801;53.562;10.038;2023-01-29T15:02:36;10.13;;;8.50;;
29940;SDS011;16801;53.562;10.038;2023-01-29T15:06:07;11.83;;;8.43;;
29940;SDS011;16801;53.562;10.038;2023-01-29T15:09:36;11.90;;;10.80;;
29940;SDS011;16801;53.562;10.038;2023-01-29T15:13:02;14.30;;;10.67;;
29940;SDS011;16801;53.562;10.038;2023-01-29T15:16:34;11.93;;;9.20;;
29940;SDS011;16801;53.562;10.038;2023-01-29T15:20:18;10.73;;;9.73;;
29940;SDS011;16801;53.562;10.038;2023-01-29T15:23:47;10.37;;;8.37;;
29940;SDS011;16801;53.562;10.038;2023-01-29T15:27:22;12.40;;;9.63;;
29940;SDS011;16801;53.562;10.038;2023-01-29T15:30:43;11.00;;;9.80;;
29940;SDS011;16801;53.562;10.038;2023-01-29T15:34:04;17.80;;;11.80;;
29940;SDS011;16801;53.562;10.038;2023-01-29T15:37:27;14.23;;;10.00;;
29940;SDS011;16801;53.562;10.038;2023-01-29T15:40:52;10.97;;;9.30;;
29940;SDS011;16801;53.562;10.038;2023-01-29T15:44:15;12.17;;;10.53;;
29940;SDS011;16801;53.562;10.038;2023-01-29T15:47:37;11.40;;;8.77;;
29940;SDS011;16801;53.562;10.038;2023-01-29T15:50:58;13.63;;;10.40;;
29940;SDS011;16801;53.562;10.038;2023-01-29T15:54:23;17.23;;;11.07;;
29940;SDS011;16801;53.562;10.038;2023-01-29T15:57:47;14.20;;;11.13;;
29940;SDS011;16801;53.562;10.038;2023-01-29T16:01:08;13.33;;;10.97;;
29940;SDS011;16801;53.562;10.038;2023-01-29T16:04:30;14.17;;;11.00;;
29940;SDS011;16801;53.562;10.038;2023-01-29T16:07:51;13.40;;;10.73;;
29940;SDS011;16801;53.562;10.038;2023-01-29T16:11:14;13.57;;;10.83;;
29940;SDS011;16801;53.562;10.038;2023-01-29T16:14:39;13.97;;;11.53;;
29940;SDS011;16801;53.562;10.038;2023-01-29T16:18:02;14.70;;;9.57;;
29940;SDS011;16801;53.562;10.038;2023-01-29T16:21:39;12.53;;;9.53;;
29940;SDS011;16801;53.562;10.038;2023-01-29T16:25:05;14.17;;;10.67;;
29940;SDS011;16801;53.562;10.038;2023-01-29T16:28:31;11.20;;;9.20;;
29940;SDS011;16801;53.562;10.038;2023-01-29T16:31:54;15.27;;;9.20;;
29940;SDS011;16801;53.562;10.038;2023-01-29T16:35:19;10.70;;;9.60;;
29940;SDS011;16801;53.562;10.038;2023-01-29T16:38:40;10.80;;;9.57;;
29940;SDS011;16801;53.562;10.038;2023-01-29T16:42:18;12.73;;;8.90;;
29940;SDS011;16801;53.562;10.038;2023-01-29T16:45:42;13.93;;;11.03;;
29940;SDS011;16801;53.562;10.038;2023-01-29T16:53:10;14.53;;;11.70;;
29940;SDS011;16801;53.562;10.038;2023-01-29T16:56:32;16.33;;;10.20;;
29940;SDS011;16801;53.562;10.038;2023-01-29T16:59:54;12.60;;;9.03;;
29940;SDS011;16801;53.562;10.038;2023-01-29T17:03:17;10.63;;;7.77;;
29940;SDS011;16801;53.562;10.038;2023-01-29T17:06:41;10.87;;;7.50;;
29940;SDS011;16801;53.562;10.038;2023-01-29T17:10:04;12.77;;;9.13;;
29940;SDS011;16801;53.562;10.038;2023-01-29T17:13:27;19.53;;;9.37;;
29940;SDS011;16801;53.562;10.038;2023-01-29T17:16:54;8.87;;;8.07;;
29940;SDS011;16801;53.562;10.038;2023-01-29T17:20:21;11.87;;;9.13;;
29940;SDS011;16801;53.562;10.038;2023-01-29T17:23:43;10.73;;;8.37;;
29940;SDS011;16801;53.562;10.038;2023-01-29T17:27:04;11.20;;;8.87;;
29940;SDS011;16801;53.562;10.038;2023-01-29T17:30:25;11.20;;;8.53;;
29940;SDS011;16801;53.562;10.038;2023-01-29T17:33:52;11.57;;;9.53;;
29940;SDS011;16801;53.562;10.038;2023-01-29T17:37:13;19.53;;;11.10;;
29940;SDS011;16801;53.562;10.038;2023-01-29T17:40:36;12.03;;;8.60;;
29940;SDS011;16801;53.562;10.038;2023-01-29T17:44:00;9.60;;;8.20;;
29940;SDS011;16801;53.562;10.038;2023-01-29T17:47:21;9.77;;;8.67;;
29940;SDS011;16801;53.562;10.038;2023-01-29T17:50:42;12.40;;;9.03;;
29940;SDS011;16801;53.562;10.038;2023-01-29T17:54:07;8.73;;;7.83;;
29940;SDS011;16801;53.562;10.038;2023-01-29T17:57:29;11.33;;;8.63;;
29940;SDS011;16801;53.562;10.038;2023-01-29T18:00:50;8.90;;;7.87;;
29940;SDS011;16801;53.562;10.038;2023-01-29T18:04:12;10.67;;;7.73;;
29940;SDS011;16801;53.562;10.038;2023-01-29T18:07:34;10.10;;;7.83;;
29940;SDS011;16801;53.562;10.038;2023-01-29T18:10:56;9.20;;;7.40;;
29940;SDS011;16801;53.562;10.038;2023-01-29T18:14:18;11.30;;;8.63;;
29940;SDS011;16801;53.562;10.038;2023-01-29T18:17:39;8.90;;;8.00;;
29940;SDS011;16801;53.562;10.038;2023-01-29T18:21:00;10.07;;;8.00;;
29940;SDS011;16801;53.562;10.038;2023-01-29T18:24:21;10.07;;;8.23;;
29940;SDS011;16801;53.562;10.038;2023-01-29T18:27:45;11.50;;;8.90;;
29940;SDS011;16801;53.562;10.038;2023-01-29T18:31:07;13.60;;;9.80;;
29940;SDS011;16801;53.562;10.038;2023-01-29T18:34:29;10.07;;;8.43;;
29940;SDS011;16801;53.562;10.038;2023-01-29T18:37:49;10.43;;;8.57;;
29940;SDS011;16801;53.562;10.038;2023-01-29T18:41:10;12.27;;;9.57;;
29940;SDS011;16801;53.562;10.038;2023-01-29T18:44:31;11.07;;;8.50;;
29940;SDS011;16801;53.562;10.038;2023-01-29T18:47:54;13.03;;;9.90;;
29940;SDS011;16801;53.562;10.038;2023-01-29T18:51:16;9.60;;;8.60;;
29940;SDS011;16801;53.562;10.038;2023-01-29T18:54:36;12.03;;;7.97;;
29940;SDS011;16801;53.562;10.038;2023-01-29T18:57:57;9.30;;;7.13;;
29940;SDS011;16801;53.562;10.038;2023-01-29T19:01:18;16.63;;;9.33;;
29940;SDS011;16801;53.562;10.038;2023-01-29T19:04:40;15.17;;;10.77;;
29940;SDS011;16801;53.562;10.038;2023-01-29T19:08:02;15.73;;;10.60;;
29940;SDS011;16801;53.562;10.038;2023-01-29T19:11:23;22.43;;;11.67;;
29940;SDS011;16801;53.562;10.038;2023-01-29T19:14:44;17.60;;;12.80;;
29940;SDS011;16801;53.562;10.038;2023-01-29T19:18:05;12.80;;;11.37;;
29940;SDS011;16801;53.562;10.038;2023-01-29T19:21:27;19.80;;;12.40;;
29940;SDS011;16801;53.562;10.038;2023-01-29T19:24:54;16.23;;;11.80;;
29940;SDS011;16801;53.562;10.038;2023-01-29T19:28:15;17.63;;;12.83;;
29940;SDS011;16801;53.562;10.038;2023-01-29T19:31:36;18.30;;;12.17;;
29940;SDS011;16801;53.562;10.038;2023-01-29T19:34:57;14.80;;;12.03;;
29940;SDS011;16801;53.562;10.038;2023-01-29T19:38:19;19.13;;;14.53;;
29940;SDS011;16801;53.562;10.038;2023-01-29T19:41:40;15.83;;;13.03;;
29940;SDS011;16801;53.562;10.038;2023-01-29T19:45:01;19.10;;;12.47;;
29940;SDS011;16801;53.562;10.038;2023-01-29T19:48:21;19.60;;;13.07;;
29940;SDS011;16801;53.562;10.038;2023-01-29T19:51:43;23.60;;;15.40;;
29940;SDS011;16801;53.562;10.038;2023-01-29T19:55:06;22.07;;;13.17;;
29940;SDS011;16801;53.562;10.038;2023-01-29T19:58:28;20.67;;;15.07;;
29940;SDS011;16801;53.562;10.038;2023-01-29T20:01:49;19.17;;;13.33;;
29940;SDS011;16801;53.562;10.038;2023-01-29T20:05:10;26.00;;;13.73;;
29940;SDS011;16801;53.562;10.038;2023-01-29T20:08:31;17.83;;;14.23;;
29940;SDS011;16801;53.562;10.038;2023-01-29T20:11:54;18.93;;;12.70;;
29940;SDS011;16801;53.562;10.038;2023-01-29T20:15:15;19.13;;;15.73;;